sensor_id;sensor_type;location;lat;lon;timestamp;temperature;humidity
37086;DHT22;23001;45.952;12.676;2023-07-31T00:00:28;22.30;99.90
37086;DHT22;23001;45.952;12.676;2023-07-31T00:02:54;22.20;99.90
37086;DHT22;23001;45.952;12.676;2023-07-31T00:05:20;22.20;99.90
37086;DHT22;23001;45.952;12.676;2023-07-31T00:07:46;22.10;99.90
37086;DHT22;23001;45.952;12.676;2023-07-31T00:10:12;22.10;99.90
37086;DHT22;23001;45.952;12.676;2023-07-31T00:12:39;22.20;99.90
37086;DHT22;23001;45.952;12.676;2023-07-31T00:15:06;22.20;99.90
37086;DHT22;23001;45.952;12.676;2023-07-31T00:17:32;22.20;99.90
37086;DHT22;23001;45.952;12.676;2023-07-31T00:19:57;22.20;99.90
37086;DHT22;23001;45.952;12.676;2023-07-31T00:22:23;22.20;99.90
37086;DHT22;23001;45.952;12.676;2023-07-31T00:24:49;22.10;99.90
37086;DHT22;23001;45.952;12.676;2023-07-31T00:27:15;22.20;99.90
37086;DHT22;23001;45.952;12.676;2023-07-31T00:29:40;22.20;99.90
37086;DHT22;23001;45.952;12.676;2023-07-31T00:32:07;22.20;99.90
37086;DHT22;23001;45.952;12.676;2023-07-31T00:34:32;22.20;99.90
37086;DHT22;23001;45.952;12.676;2023-07-31T00:36:58;22.20;99.90
37086;DHT22;23001;45.952;12.676;2023-07-31T00:39:24;22.30;99.90
37086;DHT22;23001;45.952;12.676;2023-07-31T00:41:49;22.40;99.90
37086;DHT22;23001;45.952;12.676;2023-07-31T00:44:15;22.30;99.90
37086;DHT22;23001;45.952;12.676;2023-07-31T00:46:41;22.30;99.90
37086;DHT22;23001;45.952;12.676;2023-07-31T00:49:07;22.20;99.90
37086;DHT22;23001;45.952;12.676;2023-07-31T00:51:33;22.20;99.90
37086;DHT22;23001;45.952;12.676;2023-07-31T00:53:59;22.10;99.90
37086;DHT22;23001;45.952;12.676;2023-07-31T00:56:26;22.00;99.90
37086;DHT22;23001;45.952;12.676;2023-07-31T00:58:53;22.00;99.90
37086;DHT22;23001;45.952;12.676;2023-07-31T01:01:18;22.00;99.90
37086;DHT22;23001;45.952;12.676;2023-07-31T01:03:44;22.00;99.90
37086;DHT22;23001;45.952;12.676;2023-07-31T01:06:34;21.90;99.90
37086;DHT22;23001;45.952;12.676;2023-07-31T01:09:06;21.80;99.90
37086;DHT22;23001;45.952;12.676;2023-07-31T01:11:38;21.90;99.90
37086;DHT22;23001;45.952;12.676;2023-07-31T01:14:08;22.00;99.90
37086;DHT22;23001;45.952;12.676;2023-07-31T01:16:34;22.00;99.90
37086;DHT22;23001;45.952;12.676;2023-07-31T01:19:00;21.90;99.90
37086;DHT22;23001;45.952;12.676;2023-07-31T01:24:28;21.80;99.90
37086;DHT22;23001;45.952;12.676;2023-07-31T01:27:10;21.80;99.90
37086;DHT22;23001;45.952;12.676;2023-07-31T01:29:49;21.70;99.90
37086;DHT22;23001;45.952;12.676;2023-07-31T01:32:18;21.70;99.90
37086;DHT22;23001;45.952;12.676;2023-07-31T01:34:45;21.80;99.90
37086;DHT22;23001;45.952;12.676;2023-07-31T01:37:11;21.80;99.90
37086;DHT22;23001;45.952;12.676;2023-07-31T01:39:36;21.80;99.90
37086;DHT22;23001;45.952;12.676;2023-07-31T01:42:02;21.70;99.90
37086;DHT22;23001;45.952;12.676;2023-07-31T01:44:28;21.60;99.90
37086;DHT22;23001;45.952;12.676;2023-07-31T01:46:53;21.70;99.90
37086;DHT22;23001;45.952;12.676;2023-07-31T01:49:19;21.70;99.90
37086;DHT22;23001;45.952;12.676;2023-07-31T01:51:45;21.70;99.90
37086;DHT22;23001;45.952;12.676;2023-07-31T01:54:10;21.60;99.90
37086;DHT22;23001;45.952;12.676;2023-07-31T01:56:36;21.60;99.90
37086;DHT22;23001;45.952;12.676;2023-07-31T01:59:02;21.60;99.90
37086;DHT22;23001;45.952;12.676;2023-07-31T02:01:27;21.70;99.90
37086;DHT22;23001;45.952;12.676;2023-07-31T02:03:53;21.70;99.90
37086;DHT22;23001;45.952;12.676;2023-07-31T02:06:19;21.70;99.90
37086;DHT22;23001;45.952;12.676;2023-07-31T02:08:45;21.70;99.90
37086;DHT22;23001;45.952;12.676;2023-07-31T02:11:11;21.70;99.90
37086;DHT22;23001;45.952;12.676;2023-07-31T02:13:36;21.60;99.90
37086;DHT22;23001;45.952;12.676;2023-07-31T02:16:02;21.60;99.90
37086;DHT22;23001;45.952;12.676;2023-07-31T02:18:28;21.60;99.90
37086;DHT22;23001;45.952;12.676;2023-07-31T02:20:54;21.50;99.90
37086;DHT22;23001;45.952;12.676;2023-07-31T02:23:21;21.60;99.90
37086;DHT22;23001;45.952;12.676;2023-07-31T02:25:47;21.50;99.90
37086;DHT22;23001;45.952;12.676;2023-07-31T02:28:13;21.40;99.90
37086;DHT22;23001;45.952;12.676;2023-07-31T02:30:39;21.40;99.90
37086;DHT22;23001;45.952;12.676;2023-07-31T02:33:05;21.40;99.90
37086;DHT22;23001;45.952;12.676;2023-07-31T02:35:31;21.40;99.90
37086;DHT22;23001;45.952;12.676;2023-07-31T02:37:56;21.40;99.90
37086;DHT22;23001;45.952;12.676;2023-07-31T02:40:22;21.40;99.90
37086;DHT22;23001;45.952;12.676;2023-07-31T02:42:49;21.30;99.90
37086;DHT22;23001;45.952;12.676;2023-07-31T02:45:14;21.30;99.90
37086;DHT22;23001;45.952;12.676;2023-07-31T02:47:40;21.30;99.90
37086;DHT22;23001;45.952;12.676;2023-07-31T02:50:06;21.20;99.90
37086;DHT22;23001;45.952;12.676;2023-07-31T02:52:32;21.20;99.90
37086;DHT22;23001;45.952;12.676;2023-07-31T02:54:58;21.10;99.90
37086;DHT22;23001;45.952;12.676;2023-07-31T02:57:24;21.10;99.90
37086;DHT22;23001;45.952;12.676;2023-07-31T02:59:50;21.10;99.90
37086;DHT22;23001;45.952;12.676;2023-07-31T03:02:15;21.10;99.90
37086;DHT22;23001;45.952;12.676;2023-07-31T03:04:41;21.10;99.90
37086;DHT22;23001;45.952;12.676;2023-07-31T03:07:07;21.00;99.90
37086;DHT22;23001;45.952;12.676;2023-07-31T03:09:33;21.10;99.90
37086;DHT22;23001;45.952;12.676;2023-07-31T03:11:59;21.10;99.90
37086;DHT22;23001;45.952;12.676;2023-07-31T03:14:25;21.00;99.90
37086;DHT22;23001;45.952;12.676;2023-07-31T03:16:52;21.10;99.90
37086;DHT22;23001;45.952;12.676;2023-07-31T03:19:20;21.10;99.90
37086;DHT22;23001;45.952;12.676;2023-07-31T03:21:46;21.10;99.90
37086;DHT22;23001;45.952;12.676;2023-07-31T03:24:12;21.10;99.90
37086;DHT22;23001;45.952;12.676;2023-07-31T03:26:38;21.10;99.90
37086;DHT22;23001;45.952;12.676;2023-07-31T03:29:07;21.10;99.90
37086;DHT22;23001;45.952;12.676;2023-07-31T03:31:33;21.00;99.90
37086;DHT22;23001;45.952;12.676;2023-07-31T03:33:58;21.00;99.90
37086;DHT22;23001;45.952;12.676;2023-07-31T03:36:24;21.20;99.90
37086;DHT22;23001;45.952;12.676;2023-07-31T03:38:51;21.10;99.90
37086;DHT22;23001;45.952;12.676;2023-07-31T03:41:17;21.10;99.90
37086;DHT22;23001;45.952;12.676;2023-07-31T03:43:45;21.00;99.90
37086;DHT22;23001;45.952;12.676;2023-07-31T03:46:10;21.00;99.90
37086;DHT22;23001;45.952;12.676;2023-07-31T03:48:36;21.00;99.90
37086;DHT22;23001;45.952;12.676;2023-07-31T03:51:02;21.00;99.90
37086;DHT22;23001;45.952;12.676;2023-07-31T03:53:28;20.90;99.90
37086;DHT22;23001;45.952;12.676;2023-07-31T03:55:53;21.00;99.90
37086;DHT22;23001;45.952;12.676;2023-07-31T03:58:19;21.00;99.90
37086;DHT22;23001;45.952;12.676;2023-07-31T04:00:45;21.00;99.90
37086;DHT22;23001;45.952;12.676;2023-07-31T04:03:11;21.10;99.90
37086;DHT22;23001;45.952;12.676;2023-07-31T04:05:38;21.10;99.90
37086;DHT22;23001;45.952;12.676;2023-07-31T04:08:07;21.20;99.90
37086;DHT22;23001;45.952;12.676;2023-07-31T04:10:33;21.10;99.90
37086;DHT22;23001;45.952;12.676;2023-07-31T04:13:00;21.10;99.90
37086;DHT22;23001;45.952;12.676;2023-07-31T04:15:26;21.10;99.90
37086;DHT22;23001;45.952;12.676;2023-07-31T04:17:52;21.10;99.90
37086;DHT22;23001;45.952;12.676;2023-07-31T04:20:20;21.20;99.90
37086;DHT22;23001;45.952;12.676;2023-07-31T04:22:45;21.20;99.90
37086;DHT22;23001;45.952;12.676;2023-07-31T04:25:14;21.20;99.90
37086;DHT22;23001;45.952;12.676;2023-07-31T04:27:43;21.20;99.90
37086;DHT22;23001;45.952;12.676;2023-07-31T04:30:09;21.20;99.90
37086;DHT22;23001;45.952;12.676;2023-07-31T04:32:35;21.30;99.90
37086;DHT22;23001;45.952;12.676;2023-07-31T04:35:04;21.30;99.90
37086;DHT22;23001;45.952;12.676;2023-07-31T04:37:30;21.30;99.90
37086;DHT22;23001;45.952;12.676;2023-07-31T04:39:56;21.30;99.90
37086;DHT22;23001;45.952;12.676;2023-07-31T04:42:22;21.30;99.90
37086;DHT22;23001;45.952;12.676;2023-07-31T04:44:48;21.30;99.90
37086;DHT22;23001;45.952;12.676;2023-07-31T04:47:14;21.30;99.90
37086;DHT22;23001;45.952;12.676;2023-07-31T04:49:47;21.30;99.90
37086;DHT22;23001;45.952;12.676;2023-07-31T04:52:16;21.30;99.90
37086;DHT22;23001;45.952;12.676;2023-07-31T04:54:42;21.30;99.90
37086;DHT22;23001;45.952;12.676;2023-07-31T04:57:07;21.40;99.90
37086;DHT22;23001;45.952;12.676;2023-07-31T04:59:33;21.30;99.90
37086;DHT22;23001;45.952;12.676;2023-07-31T05:01:59;21.30;99.90
37086;DHT22;23001;45.952;12.676;2023-07-31T05:04:25;21.40;99.90
37086;DHT22;23001;45.952;12.676;2023-07-31T05:06:50;21.50;99.90
37086;DHT22;23001;45.952;12.676;2023-07-31T05:09:16;21.50;99.90
37086;DHT22;23001;45.952;12.676;2023-07-31T05:11:45;21.50;99.90
37086;DHT22;23001;45.952;12.676;2023-07-31T05:14:11;21.60;99.90
37086;DHT22;23001;45.952;12.676;2023-07-31T05:16:36;21.70;99.90
37086;DHT22;23001;45.952;12.676;2023-07-31T05:19:05;21.70;99.90
37086;DHT22;23001;45.952;12.676;2023-07-31T05:21:34;21.80;99.90
37086;DHT22;23001;45.952;12.676;2023-07-31T05:24:07;21.80;99.90
37086;DHT22;23001;45.952;12.676;2023-07-31T05:27:28;21.80;99.90
37086;DHT22;23001;45.952;12.676;2023-07-31T05:29:56;21.80;99.90
37086;DHT22;23001;45.952;12.676;2023-07-31T05:35:50;22.00;99.90
37086;DHT22;23001;45.952;12.676;2023-07-31T05:38:28;22.00;99.90
37086;DHT22;23001;45.952;12.676;2023-07-31T05:41:21;22.10;99.90
37086;DHT22;23001;45.952;12.676;2023-07-31T05:53:39;23.30;99.90
37086;DHT22;23001;45.952;12.676;2023-07-31T05:56:15;23.60;99.90
37086;DHT22;23001;45.952;12.676;2023-07-31T06:06:54;24.80;99.90
37086;DHT22;23001;45.952;12.676;2023-07-31T06:09:21;25.00;99.90
37086;DHT22;23001;45.952;12.676;2023-07-31T06:11:46;25.50;99.90
37086;DHT22;23001;45.952;12.676;2023-07-31T06:14:12;25.20;99.90
37086;DHT22;23001;45.952;12.676;2023-07-31T06:16:38;25.70;99.90
37086;DHT22;23001;45.952;12.676;2023-07-31T06:19:35;26.30;99.90
37086;DHT22;23001;45.952;12.676;2023-07-31T06:22:00;26.80;99.90
37086;DHT22;23001;45.952;12.676;2023-07-31T06:24:27;27.10;99.90
37086;DHT22;23001;45.952;12.676;2023-07-31T06:26:53;27.10;99.90
37086;DHT22;23001;45.952;12.676;2023-07-31T06:29:23;27.00;99.90
37086;DHT22;23001;45.952;12.676;2023-07-31T06:31:49;26.50;99.90
37086;DHT22;23001;45.952;12.676;2023-07-31T06:34:17;26.30;99.90
37086;DHT22;23001;45.952;12.676;2023-07-31T06:36:43;27.10;99.90
37086;DHT22;23001;45.952;12.676;2023-07-31T06:39:11;27.20;99.90
37086;DHT22;23001;45.952;12.676;2023-07-31T06:41:38;26.70;99.90
37086;DHT22;23001;45.952;12.676;2023-07-31T06:44:04;25.90;99.90
37086;DHT22;23001;45.952;12.676;2023-07-31T06:46:29;25.60;99.90
37086;DHT22;23001;45.952;12.676;2023-07-31T06:48:57;25.40;99.90
37086;DHT22;23001;45.952;12.676;2023-07-31T06:51:23;25.40;99.90
37086;DHT22;23001;45.952;12.676;2023-07-31T06:53:49;25.20;99.90
37086;DHT22;23001;45.952;12.676;2023-07-31T06:56:14;25.40;99.90
37086;DHT22;23001;45.952;12.676;2023-07-31T06:58:43;25.30;99.90
37086;DHT22;23001;45.952;12.676;2023-07-31T07:01:11;25.30;99.90
37086;DHT22;23001;45.952;12.676;2023-07-31T07:03:36;25.20;99.90
37086;DHT22;23001;45.952;12.676;2023-07-31T07:06:02;25.20;99.90
37086;DHT22;23001;45.952;12.676;2023-07-31T07:08:28;25.30;99.90
37086;DHT22;23001;45.952;12.676;2023-07-31T07:10:53;25.30;99.90
37086;DHT22;23001;45.952;12.676;2023-07-31T07:13:19;25.40;99.90
37086;DHT22;23001;45.952;12.676;2023-07-31T07:15:48;25.50;99.90
37086;DHT22;23001;45.952;12.676;2023-07-31T07:18:18;25.90;99.90
37086;DHT22;23001;45.952;12.676;2023-07-31T07:20:50;27.20;99.90
37086;DHT22;23001;45.952;12.676;2023-07-31T07:23:16;28.00;99.90
37086;DHT22;23001;45.952;12.676;2023-07-31T07:25:42;27.90;99.90
37086;DHT22;23001;45.952;12.676;2023-07-31T07:28:14;27.50;99.90
37086;DHT22;23001;45.952;12.676;2023-07-31T07:30:39;27.10;99.90
37086;DHT22;23001;45.952;12.676;2023-07-31T07:33:05;26.80;99.90
37086;DHT22;23001;45.952;12.676;2023-07-31T07:35:33;26.80;99.90
37086;DHT22;23001;45.952;12.676;2023-07-31T07:38:02;26.80;99.90
37086;DHT22;23001;45.952;12.676;2023-07-31T07:40:28;26.70;99.90
37086;DHT22;23001;45.952;12.676;2023-07-31T07:42:56;26.50;99.90
37086;DHT22;23001;45.952;12.676;2023-07-31T07:45:22;26.50;99.90
37086;DHT22;23001;45.952;12.676;2023-07-31T07:47:48;26.60;99.90
37086;DHT22;23001;45.952;12.676;2023-07-31T07:50:14;26.50;99.90
37086;DHT22;23001;45.952;12.676;2023-07-31T07:52:39;26.40;99.90
37086;DHT22;23001;45.952;12.676;2023-07-31T07:55:05;26.90;99.90
37086;DHT22;23001;45.952;12.676;2023-07-31T07:57:37;27.60;99.90
37086;DHT22;23001;45.952;12.676;2023-07-31T08:00:13;27.80;99.90
37086;DHT22;23001;45.952;12.676;2023-07-31T08:02:38;27.80;99.70
37086;DHT22;23001;45.952;12.676;2023-07-31T08:05:05;27.50;99.90
37086;DHT22;23001;45.952;12.676;2023-07-31T08:07:36;27.30;99.90
37086;DHT22;23001;45.952;12.676;2023-07-31T08:10:02;27.30;99.90
37086;DHT22;23001;45.952;12.676;2023-07-31T08:12:28;27.10;99.90
37086;DHT22;23001;45.952;12.676;2023-07-31T08:14:53;27.00;99.90
37086;DHT22;23001;45.952;12.676;2023-07-31T08:17:19;26.90;99.90
37086;DHT22;23001;45.952;12.676;2023-07-31T08:19:45;27.00;99.90
37086;DHT22;23001;45.952;12.676;2023-07-31T08:22:11;27.10;99.90
37086;DHT22;23001;45.952;12.676;2023-07-31T08:24:37;27.10;99.90
37086;DHT22;23001;45.952;12.676;2023-07-31T08:27:06;27.20;99.90
37086;DHT22;23001;45.952;12.676;2023-07-31T08:29:38;27.10;99.90
37086;DHT22;23001;45.952;12.676;2023-07-31T08:32:05;26.90;99.90
37086;DHT22;23001;45.952;12.676;2023-07-31T08:34:40;27.00;99.90
37086;DHT22;23001;45.952;12.676;2023-07-31T08:37:07;27.00;99.90
37086;DHT22;23001;45.952;12.676;2023-07-31T08:39:36;27.10;99.90
37086;DHT22;23001;45.952;12.676;2023-07-31T08:42:08;27.10;99.90
37086;DHT22;23001;45.952;12.676;2023-07-31T08:44:38;27.10;99.90
37086;DHT22;23001;45.952;12.676;2023-07-31T08:51:12;27.50;99.90
37086;DHT22;23001;45.952;12.676;2023-07-31T08:53:59;27.40;99.90
37086;DHT22;23001;45.952;12.676;2023-07-31T08:56:25;27.40;99.90
37086;DHT22;23001;45.952;12.676;2023-07-31T08:58:55;27.50;99.90
37086;DHT22;23001;45.952;12.676;2023-07-31T09:01:49;27.40;99.90
37086;DHT22;23001;45.952;12.676;2023-07-31T09:04:32;27.40;99.90
37086;DHT22;23001;45.952;12.676;2023-07-31T09:07:11;27.40;99.90
37086;DHT22;23001;45.952;12.676;2023-07-31T09:09:39;27.40;99.90
37086;DHT22;23001;45.952;12.676;2023-07-31T09:12:10;27.40;99.90
37086;DHT22;23001;45.952;12.676;2023-07-31T09:14:41;27.30;99.90
37086;DHT22;23001;45.952;12.676;2023-07-31T09:17:10;27.30;99.90
37086;DHT22;23001;45.952;12.676;2023-07-31T09:19:39;27.30;99.90
37086;DHT22;23001;45.952;12.676;2023-07-31T09:22:06;27.50;99.90
37086;DHT22;23001;45.952;12.676;2023-07-31T09:24:34;27.70;99.90
37086;DHT22;23001;45.952;12.676;2023-07-31T09:27:32;27.70;99.90
37086;DHT22;23001;45.952;12.676;2023-07-31T09:30:00;27.90;99.90
37086;DHT22;23001;45.952;12.676;2023-07-31T09:32:37;27.80;99.90
37086;DHT22;23001;45.952;12.676;2023-07-31T09:35:14;27.90;99.90
37086;DHT22;23001;45.952;12.676;2023-07-31T09:37:43;28.20;99.90
37086;DHT22;23001;45.952;12.676;2023-07-31T09:40:25;28.50;99.90
37086;DHT22;23001;45.952;12.676;2023-07-31T09:42:51;28.30;99.90
37086;DHT22;23001;45.952;12.676;2023-07-31T09:45:18;28.30;99.90
37086;DHT22;23001;45.952;12.676;2023-07-31T09:47:58;28.40;99.90
37086;DHT22;23001;45.952;12.676;2023-07-31T09:50:30;28.50;99.90
37086;DHT22;23001;45.952;12.676;2023-07-31T09:52:57;28.50;99.90
37086;DHT22;23001;45.952;12.676;2023-07-31T09:55:23;28.60;99.90
37086;DHT22;23001;45.952;12.676;2023-07-31T09:57:49;28.80;99.00
37086;DHT22;23001;45.952;12.676;2023-07-31T10:00:17;28.50;99.00
37086;DHT22;23001;45.952;12.676;2023-07-31T10:02:45;28.40;99.00
37086;DHT22;23001;45.952;12.676;2023-07-31T10:05:15;28.60;98.60
37086;DHT22;23001;45.952;12.676;2023-07-31T10:08:10;28.70;99.70
37086;DHT22;23001;45.952;12.676;2023-07-31T10:10:41;28.60;98.90
37086;DHT22;23001;45.952;12.676;2023-07-31T10:13:08;28.50;99.20
37086;DHT22;23001;45.952;12.676;2023-07-31T10:15:36;28.60;99.40
37086;DHT22;23001;45.952;12.676;2023-07-31T10:18:01;28.70;98.90
37086;DHT22;23001;45.952;12.676;2023-07-31T10:20:28;28.90;99.30
37086;DHT22;23001;45.952;12.676;2023-07-31T10:22:57;28.80;99.70
37086;DHT22;23001;45.952;12.676;2023-07-31T10:25:23;29.00;99.90
37086;DHT22;23001;45.952;12.676;2023-07-31T10:27:53;28.90;99.90
37086;DHT22;23001;45.952;12.676;2023-07-31T10:30:26;28.90;99.60
37086;DHT22;23001;45.952;12.676;2023-07-31T10:32:52;29.00;99.90
37086;DHT22;23001;45.952;12.676;2023-07-31T10:35:20;28.90;99.10
37086;DHT22;23001;45.952;12.676;2023-07-31T10:37:48;28.80;99.80
37086;DHT22;23001;45.952;12.676;2023-07-31T10:40:24;28.90;99.00
37086;DHT22;23001;45.952;12.676;2023-07-31T10:42:56;28.90;99.90
37086;DHT22;23001;45.952;12.676;2023-07-31T10:45:33;28.80;99.60
37086;DHT22;23001;45.952;12.676;2023-07-31T10:48:06;29.00;99.40
37086;DHT22;23001;45.952;12.676;2023-07-31T10:50:37;29.10;99.40
37086;DHT22;23001;45.952;12.676;2023-07-31T10:53:03;29.00;99.10
37086;DHT22;23001;45.952;12.676;2023-07-31T10:55:41;29.00;99.60
37086;DHT22;23001;45.952;12.676;2023-07-31T10:58:08;29.00;99.60
37086;DHT22;23001;45.952;12.676;2023-07-31T11:00:40;28.90;99.90
37086;DHT22;23001;45.952;12.676;2023-07-31T11:03:08;28.80;99.60
37086;DHT22;23001;45.952;12.676;2023-07-31T11:05:45;28.90;99.80
37086;DHT22;23001;45.952;12.676;2023-07-31T11:10:42;29.10;98.60
37086;DHT22;23001;45.952;12.676;2023-07-31T11:13:08;29.10;98.20
37086;DHT22;23001;45.952;12.676;2023-07-31T11:15:34;29.10;99.90
37086;DHT22;23001;45.952;12.676;2023-07-31T11:18:01;29.00;99.30
37086;DHT22;23001;45.952;12.676;2023-07-31T11:20:35;29.00;99.40
37086;DHT22;23001;45.952;12.676;2023-07-31T11:23:05;29.10;99.50
37086;DHT22;23001;45.952;12.676;2023-07-31T11:25:32;29.20;98.80
37086;DHT22;23001;45.952;12.676;2023-07-31T11:28:19;29.40;99.70
37086;DHT22;23001;45.952;12.676;2023-07-31T11:30:46;29.40;99.10
37086;DHT22;23001;45.952;12.676;2023-07-31T11:33:13;29.50;99.40
37086;DHT22;23001;45.952;12.676;2023-07-31T11:35:48;29.50;98.40
37086;DHT22;23001;45.952;12.676;2023-07-31T11:38:33;29.40;99.20
37086;DHT22;23001;45.952;12.676;2023-07-31T11:41:02;29.40;99.10
37086;DHT22;23001;45.952;12.676;2023-07-31T11:43:28;29.40;99.10
37086;DHT22;23001;45.952;12.676;2023-07-31T11:45:59;29.40;98.60
37086;DHT22;23001;45.952;12.676;2023-07-31T11:48:43;29.40;97.90
37086;DHT22;23001;45.952;12.676;2023-07-31T11:51:11;29.70;99.50
37086;DHT22;23001;45.952;12.676;2023-07-31T11:53:45;29.90;98.40
37086;DHT22;23001;45.952;12.676;2023-07-31T11:56:23;29.80;98.60
37086;DHT22;23001;45.952;12.676;2023-07-31T11:59:00;29.90;99.40
37086;DHT22;23001;45.952;12.676;2023-07-31T12:01:28;29.80;99.70
37086;DHT22;23001;45.952;12.676;2023-07-31T12:03:55;29.70;98.90
37086;DHT22;23001;45.952;12.676;2023-07-31T12:06:21;29.80;99.10
37086;DHT22;23001;45.952;12.676;2023-07-31T12:08:47;29.90;98.20
37086;DHT22;23001;45.952;12.676;2023-07-31T12:11:14;29.90;97.30
37086;DHT22;23001;45.952;12.676;2023-07-31T12:13:40;29.90;98.10
37086;DHT22;23001;45.952;12.676;2023-07-31T12:16:09;30.00;99.60
37086;DHT22;23001;45.952;12.676;2023-07-31T12:18:37;30.00;99.10
37086;DHT22;23001;45.952;12.676;2023-07-31T12:21:08;30.00;97.60
37086;DHT22;23001;45.952;12.676;2023-07-31T12:23:35;29.90;96.70
37086;DHT22;23001;45.952;12.676;2023-07-31T12:26:15;29.90;97.60
37086;DHT22;23001;45.952;12.676;2023-07-31T12:28:49;29.70;98.30
37086;DHT22;23001;45.952;12.676;2023-07-31T12:31:18;29.60;97.60
37086;DHT22;23001;45.952;12.676;2023-07-31T12:33:45;29.60;97.70
37086;DHT22;23001;45.952;12.676;2023-07-31T12:36:16;29.70;99.20
37086;DHT22;23001;45.952;12.676;2023-07-31T12:38:44;29.80;98.50
37086;DHT22;23001;45.952;12.676;2023-07-31T12:41:10;29.70;99.90
37086;DHT22;23001;45.952;12.676;2023-07-31T12:43:38;29.50;99.70
37086;DHT22;23001;45.952;12.676;2023-07-31T12:46:04;29.20;99.60
37086;DHT22;23001;45.952;12.676;2023-07-31T12:48:31;29.20;99.10
37086;DHT22;23001;45.952;12.676;2023-07-31T12:50:57;29.50;98.80
37086;DHT22;23001;45.952;12.676;2023-07-31T12:53:23;29.60;99.20
37086;DHT22;23001;45.952;12.676;2023-07-31T12:55:49;29.60;99.90
37086;DHT22;23001;45.952;12.676;2023-07-31T12:58:15;29.60;99.90
37086;DHT22;23001;45.952;12.676;2023-07-31T13:00:41;29.60;98.20
37086;DHT22;23001;45.952;12.676;2023-07-31T13:03:07;29.70;99.60
37086;DHT22;23001;45.952;12.676;2023-07-31T13:05:33;29.70;99.00
37086;DHT22;23001;45.952;12.676;2023-07-31T13:07:58;29.70;97.50
37086;DHT22;23001;45.952;12.676;2023-07-31T13:10:24;29.80;97.30
37086;DHT22;23001;45.952;12.676;2023-07-31T13:12:52;29.90;99.10
37086;DHT22;23001;45.952;12.676;2023-07-31T13:15:18;29.90;99.00
37086;DHT22;23001;45.952;12.676;2023-07-31T13:17:44;29.90;99.00
37086;DHT22;23001;45.952;12.676;2023-07-31T13:20:10;29.90;97.30
37086;DHT22;23001;45.952;12.676;2023-07-31T13:22:39;29.90;97.80
37086;DHT22;23001;45.952;12.676;2023-07-31T13:25:05;29.90;99.10
37086;DHT22;23001;45.952;12.676;2023-07-31T13:27:31;30.00;99.10
37086;DHT22;23001;45.952;12.676;2023-07-31T13:29:57;29.90;98.20
37086;DHT22;23001;45.952;12.676;2023-07-31T13:32:22;29.80;99.70
37086;DHT22;23001;45.952;12.676;2023-07-31T13:34:49;29.90;99.40
37086;DHT22;23001;45.952;12.676;2023-07-31T13:37:15;29.90;99.90
37086;DHT22;23001;45.952;12.676;2023-07-31T13:39:47;29.80;99.60
37086;DHT22;23001;45.952;12.676;2023-07-31T13:42:13;29.80;99.70
37086;DHT22;23001;45.952;12.676;2023-07-31T13:44:39;29.90;99.60
37086;DHT22;23001;45.952;12.676;2023-07-31T13:47:06;29.90;99.80
37086;DHT22;23001;45.952;12.676;2023-07-31T13:49:32;30.10;98.50
37086;DHT22;23001;45.952;12.676;2023-07-31T13:51:58;29.90;97.80
37086;DHT22;23001;45.952;12.676;2023-07-31T13:54:24;29.70;99.50
37086;DHT22;23001;45.952;12.676;2023-07-31T13:56:51;29.50;98.80
37086;DHT22;23001;45.952;12.676;2023-07-31T13:59:17;29.30;99.30
37086;DHT22;23001;45.952;12.676;2023-07-31T14:01:43;29.10;99.70
37086;DHT22;23001;45.952;12.676;2023-07-31T14:04:09;29.00;99.20
37086;DHT22;23001;45.952;12.676;2023-07-31T14:06:35;29.20;99.90
37086;DHT22;23001;45.952;12.676;2023-07-31T14:09:01;29.60;99.90
37086;DHT22;23001;45.952;12.676;2023-07-31T14:11:28;29.70;99.90
37086;DHT22;23001;45.952;12.676;2023-07-31T14:13:54;29.40;99.80
37086;DHT22;23001;45.952;12.676;2023-07-31T14:16:21;29.30;99.90
37086;DHT22;23001;45.952;12.676;2023-07-31T14:18:47;29.10;99.70
37086;DHT22;23001;45.952;12.676;2023-07-31T14:21:13;29.00;99.90
37086;DHT22;23001;45.952;12.676;2023-07-31T14:23:39;29.00;99.90
37086;DHT22;23001;45.952;12.676;2023-07-31T14:26:05;29.00;99.90
37086;DHT22;23001;45.952;12.676;2023-07-31T14:28:31;29.20;99.30
37086;DHT22;23001;45.952;12.676;2023-07-31T14:30:57;29.50;98.60
37086;DHT22;23001;45.952;12.676;2023-07-31T14:33:23;29.80;99.50
37086;DHT22;23001;45.952;12.676;2023-07-31T14:35:49;29.90;98.40
37086;DHT22;23001;45.952;12.676;2023-07-31T14:38:14;29.50;99.60
37086;DHT22;23001;45.952;12.676;2023-07-31T14:40:40;29.30;99.40
37086;DHT22;23001;45.952;12.676;2023-07-31T14:43:06;29.30;99.30
37086;DHT22;23001;45.952;12.676;2023-07-31T14:45:32;29.20;99.50
37086;DHT22;23001;45.952;12.676;2023-07-31T14:47:57;29.10;99.40
37086;DHT22;23001;45.952;12.676;2023-07-31T14:50:24;29.40;99.00
37086;DHT22;23001;45.952;12.676;2023-07-31T14:52:50;29.80;97.90
37086;DHT22;23001;45.952;12.676;2023-07-31T14:55:16;29.90;97.20
37086;DHT22;23001;45.952;12.676;2023-07-31T14:57:41;30.00;97.50
37086;DHT22;23001;45.952;12.676;2023-07-31T15:00:08;30.00;98.50
37086;DHT22;23001;45.952;12.676;2023-07-31T15:02:37;29.80;97.20
37086;DHT22;23001;45.952;12.676;2023-07-31T15:05:03;29.70;97.30
37086;DHT22;23001;45.952;12.676;2023-07-31T15:07:29;29.60;97.60
37086;DHT22;23001;45.952;12.676;2023-07-31T15:09:55;29.50;98.20
37086;DHT22;23001;45.952;12.676;2023-07-31T15:12:21;29.50;98.30
37086;DHT22;23001;45.952;12.676;2023-07-31T15:14:48;29.70;96.60
37086;DHT22;23001;45.952;12.676;2023-07-31T15:17:14;29.70;96.90
37086;DHT22;23001;45.952;12.676;2023-07-31T15:19:39;29.80;97.20
37086;DHT22;23001;45.952;12.676;2023-07-31T15:22:14;29.90;96.70
37086;DHT22;23001;45.952;12.676;2023-07-31T15:46:59;29.30;97.40
37086;DHT22;23001;45.952;12.676;2023-07-31T15:52:11;29.50;97.30
37086;DHT22;23001;45.952;12.676;2023-07-31T15:54:40;29.50;97.70
37086;DHT22;23001;45.952;12.676;2023-07-31T15:57:08;29.40;97.60
37086;DHT22;23001;45.952;12.676;2023-07-31T15:59:37;29.30;97.90
37086;DHT22;23001;45.952;12.676;2023-07-31T16:02:02;29.10;98.20
37086;DHT22;23001;45.952;12.676;2023-07-31T16:04:32;29.00;97.80
37086;DHT22;23001;45.952;12.676;2023-07-31T16:07:03;28.90;97.50
37086;DHT22;23001;45.952;12.676;2023-07-31T16:09:29;28.90;97.60
37086;DHT22;23001;45.952;12.676;2023-07-31T16:15:17;29.00;98.20
37086;DHT22;23001;45.952;12.676;2023-07-31T16:21:07;28.80;97.50
37086;DHT22;23001;45.952;12.676;2023-07-31T16:24:21;28.70;97.50